Time;durP1;ratioP1;P1;durP2;ratioP2;P2;SDS_P1;SDS_P2;PMS_P1;PMS_P2;Temp;Humidity;BMP_temperature;BMP_pressure;BME280_temperature;BME280_humidity;BME280_pressure;Samples;Min_cycle;Max_cycle;Signal;HPM_P1;HPM_P2
2023/12/27 00:01:48;;;;;;;27.00;12.38;;;;;;;4.33;100.00;102097.69;5092345;27;20032;-73
2023/12/27 00:04:13;;;;;;;29.05;12.38;;;;;;;4.31;100.00;102110.03;5101149;27;20031;-74
2023/12/27 00:06:39;;;;;;;21.55;9.45;;;;;;;4.30;100.00;102103.88;5073064;27;20043;-74
2023/12/27 00:09:06;;;;;;;22.67;11.10;;;;;;;4.28;100.00;102110.09;5099828;27;20055;-74
2023/12/27 00:11:32;;;;;;;19.33;9.82;;;;;;;4.26;100.00;102109.22;5088142;27;20044;-73
2023/12/27 00:13:57;;;;;;;24.92;10.73;;;;;;;4.26;100.00;102098.66;5093022;27;20035;-74
2023/12/27 00:16:23;;;;;;;20.73;11.50;;;;;;;4.28;100.00;102105.69;5092129;27;20032;-74
2023/12/27 00:18:49;;;;;;;23.23;11.52;;;;;;;4.22;100.00;102100.50;5090977;27;20047;-73
2023/12/27 00:21:14;;;;;;;24.27;12.85;;;;;;;4.13;100.00;102101.53;5088609;27;20044;-75
2023/12/27 00:23:40;;;;;;;26.95;13.45;;;;;;;4.10;100.00;102103.34;5093262;27;20173;-76
2023/12/27 00:26:05;;;;;;;26.27;11.98;;;;;;;4.09;100.00;102106.88;5090610;27;20028;-74
2023/12/27 00:28:31;;;;;;;24.80;12.85;;;;;;;4.02;100.00;102103.47;5076011;27;20052;-73
2023/12/27 00:30:57;;;;;;;17.23;11.20;;;;;;;3.79;100.00;102095.03;5074684;27;20043;-73
2023/12/27 00:33:22;;;;;;;22.13;11.45;;;;;;;3.76;100.00;102092.44;5089439;27;20133;-75
2023/12/27 00:35:47;;;;;;;20.02;11.00;;;;;;;3.72;100.00;102090.75;5085149;27;20055;-74
2023/12/27 00:38:13;;;;;;;17.65;11.00;;;;;;;3.65;100.00;102100.50;5091856;27;20048;-74
2023/12/27 00:40:39;;;;;;;24.23;12.65;;;;;;;3.62;100.00;102109.34;5093646;27;20043;-74
2023/12/27 00:43:05;;;;;;;25.30;10.82;;;;;;;3.57;100.00;102103.25;5071779;28;20029;-73
2023/12/27 00:45:30;;;;;;;22.17;12.20;;;;;;;3.52;100.00;102102.47;5090705;27;20822;-74
2023/12/27 00:47:56;;;;;;;28.48;12.35;;;;;;;3.53;100.00;102103.31;5091187;27;20040;-76
2023/12/27 00:50:21;;;;;;;27.75;11.40;;;;;;;3.53;100.00;102098.91;5090303;27;20039;-74
2023/12/27 00:52:47;;;;;;;19.20;11.60;;;;;;;3.52;100.00;102096.31;5101979;27;20027;-74
2023/12/27 00:55:12;;;;;;;26.80;12.02;;;;;;;3.49;100.00;102098.97;5079317;27;20043;-75
2023/12/27 00:57:38;;;;;;;27.70;12.85;;;;;;;3.44;100.00;102099.03;5074637;27;20040;-77
2023/12/27 01:00:04;;;;;;;26.00;12.73;;;;;;;3.45;100.00;102098.16;5092400;27;20069;-73
2023/12/27 01:02:30;;;;;;;28.67;12.50;;;;;;;3.44;100.00;102101.69;5103401;27;20062;-75
2023/12/27 01:04:56;;;;;;;16.27;10.32;;;;;;;3.46;100.00;102105.16;5097282;27;20032;-75
2023/12/27 01:07:22;;;;;;;21.88;11.38;;;;;;;3.41;100.00;102103.47;5096855;27;20036;-75
2023/12/27 01:09:48;;;;;;;24.15;11.95;;;;;;;3.43;100.00;102102.56;5071583;28;21082;-75
2023/12/27 01:12:13;;;;;;;26.00;11.50;;;;;;;3.45;100.00;102113.09;5101686;27;20196;-76
2023/12/27 01:14:39;;;;;;;16.30;11.05;;;;;;;3.43;100.00;102105.22;5102056;27;20028;-75
2023/12/27 01:17:04;;;;;;;16.25;10.00;;;;;;;3.45;100.00;102105.19;5105362;27;20058;-76
2023/12/27 01:19:30;;;;;;;20.70;11.93;;;;;;;3.43;100.00;102097.31;5074234;28;20481;-75
2023/12/27 01:21:56;;;;;;;21.05;11.85;;;;;;;3.40;100.00;102097.34;5093261;27;20100;-76
2023/12/27 01:24:21;;;;;;;20.45;10.90;;;;;;;3.26;100.00;102094.91;5074586;28;20582;-76
2023/12/27 01:26:47;;;;;;;21.15;10.63;;;;;;;3.23;100.00;102088.78;5092580;28;20036;-75
2023/12/27 01:29:14;;;;;;;19.58;10.27;;;;;;;3.19;100.00;102097.63;5100771;27;20066;-76
2023/12/27 01:31:39;;;;;;;17.75;9.93;;;;;;;3.16;100.00;102095.88;5081766;28;20043;-76
2023/12/27 01:34:05;;;;;;;16.45;10.70;;;;;;;3.22;100.00;102101.09;5083484;27;20032;-76
2023/12/27 01:36:31;;;;;;;19.08;10.38;;;;;;;3.20;100.00;102094.97;5094671;27;20048;-75
2023/12/27 01:38:57;;;;;;;19.58;10.23;;;;;;;3.23;100.00;102094.06;5099401;27;20031;-77
2023/12/27 01:41:22;;;;;;;25.67;10.85;;;;;;;3.24;100.00;102093.16;5103391;27;20039;-76
2023/12/27 01:43:50;;;;;;;17.65;9.30;;;;;;;3.25;100.00;102090.50;5087562;28;20028;-76
2023/12/27 01:46:16;;;;;;;23.58;11.27;;;;;;;3.25;100.00;102097.53;5089758;28;20043;-76
2023/12/27 01:48:42;;;;;;;21.00;10.90;;;;;;;3.35;100.00;102105.31;5107606;27;20129;-75
2023/12/27 01:51:08;;;;;;;24.15;10.88;;;;;;;3.37;100.00;102108.81;5109138;27;20450;-75
2023/12/27 01:53:34;;;;;;;22.88;12.45;;;;;;;3.45;100.00;102108.69;5102020;27;20042;-75
2023/12/27 01:56:01;;;;;;;26.35;14.57;;;;;;;3.50;100.00;102111.25;5084170;28;20035;-75
2023/12/27 01:58:27;;;;;;;21.70;11.82;;;;;;;3.55;100.00;102101.53;5102414;27;20111;-75
2023/12/27 02:00:56;;;;;;;26.10;11.27;;;;;;;3.58;100.00;102093.59;5090343;27;20035;-74
2023/12/27 02:03:23;;;;;;;22.35;10.50;;;;;;;3.69;100.00;102094.28;5073118;27;20062;-75
2023/12/27 02:05:51;;;;;;;21.00;10.00;;;;;;;3.72;100.00;102094.25;5110961;27;20051;-75
2023/12/27 02:08:18;;;;;;;20.88;10.13;;;;;;;3.77;100.00;102094.19;5104332;27;20032;-75
2023/12/27 02:10:44;;;;;;;17.73;9.90;;;;;;;3.77;100.00;102088.91;5101757;28;20016;-75
2023/12/27 02:13:09;;;;;;;22.25;11.27;;;;;;;3.79;100.00;102080.06;5090026;28;20039;-74
2023/12/27 02:15:36;;;;;;;21.67;10.70;;;;;;;3.78;100.00;102080.97;5109316;27;20084;-75
2023/12/27 02:18:05;;;;;;;25.83;10.38;;;;;;;3.87;100.00;102085.25;5118304;27;20043;-74
2023/12/27 02:20:31;;;;;;;25.67;12.32;;;;;;;3.86;100.00;102075.56;5086467;28;20032;-75
2023/12/27 02:22:59;;;;;;;23.92;11.23;;;;;;;3.90;100.00;102074.63;5107960;27;20066;-75
2023/12/27 02:25:26;;;;;;;20.58;11.32;;;;;;;3.90;100.00;102059.66;5108578;27;20028;-76
2023/12/27 02:27:52;;;;;;;22.27;9.85;;;;;;;3.85;100.00;102050.94;5099247;27;20043;-75
2023/12/27 02:30:20;;;;;;;26.15;12.48;;;;;;;3.64;100.00;102054.78;5069304;28;20793;-76
2023/12/27 02:32:46;;;;;;;20.58;10.57;;;;;;;3.65;100.00;102058.31;5098331;27;20036;-75
2023/12/27 02:35:13;;;;;;;21.08;12.13;;;;;;;3.64;100.00;102070.63;5099231;27;20055;-75
2023/12/27 02:37:39;;;;;;;19.95;10.85;;;;;;;3.72;100.00;102062.59;5078484;28;20040;-76
2023/12/27 02:40:05;;;;;;;21.95;12.10;;;;;;;3.75;100.00;102056.41;5094003;28;20032;-75
2023/12/27 02:42:31;;;;;;;23.00;10.65;;;;;;;3.71;100.00;102055.56;5085162;27;20036;-75
2023/12/27 02:44:57;;;;;;;23.75;11.38;;;;;;;3.49;100.00;102059.44;5111274;27;20448;-77
2023/12/27 02:47:22;;;;;;;21.98;10.55;;;;;;;3.57;100.00;102055.78;5091252;27;20042;-76
2023/12/27 02:49:48;;;;;;;21.80;11.48;;;;;;;3.57;100.00;102047.88;5097945;27;20074;-75
2023/12/27 02:52:13;;;;;;;20.30;11.68;;;;;;;3.52;100.00;102044.44;5100197;27;20814;-75
2023/12/27 02:54:39;;;;;;;23.40;11.60;;;;;;;3.50;100.00;102034.81;5085126;27;20516;-75
2023/12/27 02:57:06;;;;;;;24.23;11.65;;;;;;;3.49;100.00;102030.44;5092186;27;20608;-76
2023/12/27 02:59:32;;;;;;;23.55;10.77;;;;;;;3.45;100.00;102034.88;5094471;27;20562;-74
2023/12/27 03:01:57;;;;;;;25.33;11.52;;;;;;;3.44;100.00;102029.63;5096799;27;20212;-75
2023/12/27 03:04:23;;;;;;;23.52;10.20;;;;;;;3.51;100.00;102028.63;5078538;27;20032;-76
2023/12/27 03:06:50;;;;;;;25.70;11.40;;;;;;;3.51;100.00;102028.63;5098039;27;20826;-75
2023/12/27 03:09:15;;;;;;;31.67;12.80;;;;;;;3.55;100.00;102027.69;5078792;28;20074;-75
2023/12/27 03:11:41;;;;;;;29.75;12.52;;;;;;;3.58;100.00;102025.88;5101810;27;20873;-75
2023/12/27 03:14:07;;;;;;;26.77;12.90;;;;;;;3.60;100.00;102025.84;5082628;27;20036;-75
2023/12/27 03:16:33;;;;;;;29.42;12.88;;;;;;;3.58;100.00;102019.75;5076984;27;20031;-76
2023/12/27 03:18:59;;;;;;;29.77;12.30;;;;;;;3.58;100.00;102017.09;5069701;28;20119;-75
2023/12/27 03:21:26;;;;;;;23.77;12.93;;;;;;;3.56;100.00;102018.88;5087448;27;20028;-77
2023/12/27 03:23:52;;;;;;;21.58;10.57;;;;;;;3.57;100.00;102010.97;5071830;28;20074;-75
2023/12/27 03:26:17;;;;;;;28.40;11.13;;;;;;;3.53;100.00;102009.25;5095201;27;20373;-74
2023/12/27 03:28:44;;;;;;;24.23;11.38;;;;;;;3.59;100.00;102003.03;5092731;27;20032;-75
2023/12/27 03:31:09;;;;;;;23.15;10.60;;;;;;;3.55;100.00;102006.59;5075495;27;20035;-75
2023/12/27 03:33:35;;;;;;;24.95;11.55;;;;;;;3.61;100.00;102003.84;5072270;28;20028;-75
2023/12/27 03:36:01;;;;;;;22.98;11.10;;;;;;;3.61;100.00;102009.13;5074446;27;20474;-75
2023/12/27 03:38:27;;;;;;;29.35;12.52;;;;;;;3.54;100.00;101999.59;5080856;28;20043;-75
2023/12/27 03:40:52;;;;;;;26.23;11.60;;;;;;;3.56;100.00;101988.09;5091666;27;20556;-76
2023/12/27 03:43:18;;;;;;;23.27;10.98;;;;;;;3.64;100.00;101998.53;5076457;27;20038;-74
2023/12/27 03:45:45;;;;;;;25.02;11.32;;;;;;;3.45;100.00;101992.69;5094431;27;20032;-75
2023/12/27 03:48:11;;;;;;;22.02;10.75;;;;;;;3.55;100.00;101998.69;5077699;27;20037;-75
2023/12/27 03:50:37;;;;;;;26.40;10.70;;;;;;;3.58;100.00;101998.66;5085258;28;20101;-75
2023/12/27 03:53:03;;;;;;;19.52;11.73;;;;;;;3.66;100.00;101990.59;5076062;27;20031;-74
2023/12/27 03:55:28;;;;;;;23.65;9.65;;;;;;;3.72;100.00;101998.44;5079425;27;21199;-75
2023/12/27 03:57:54;;;;;;;29.00;12.00;;;;;;;3.76;100.00;101998.31;5081230;28;20040;-75
2023/12/27 04:00:20;;;;;;;32.55;13.25;;;;;;;3.74;100.00;101997.50;5075972;28;20708;-74
2023/12/27 04:02:46;;;;;;;35.20;13.70;;;;;;;3.76;100.00;102000.09;5100116;27;20036;-75
2023/12/27 04:05:13;;;;;;;27.17;12.30;;;;;;;3.68;100.00;101991.47;5074833;27;20924;-75
2023/12/27 04:07:38;;;;;;;32.80;12.98;;;;;;;3.59;100.00;101990.69;5068576;28;20151;-77
2023/12/27 04:10:05;;;;;;;22.95;11.93;;;;;;;3.50;100.00;101996.13;5073172;28;20577;-76
2023/12/27 04:12:31;;;;;;;25.45;13.13;;;;;;;3.59;100.00;101984.56;5097969;27;20040;-75
2023/12/27 04:14:56;;;;;;;26.90;12.80;;;;;;;3.66;100.00;101983.56;5103351;27;20028;-76
2023/12/27 04:17:22;;;;;;;36.05;15.48;;;;;;;3.76;100.00;101979.88;5072151;27;20550;-76
2023/12/27 04:19:48;;;;;;;25.83;12.93;;;;;;;3.84;100.00;101972.69;5096499;27;20393;-75
2023/12/27 04:22:13;;;;;;;40.30;17.92;;;;;;;3.72;100.00;101974.69;5073921;27;20106;-75
2023/12/27 04:24:39;;;;;;;45.63;18.55;;;;;;;3.70;100.00;101976.47;5087630;27;20063;-75
2023/12/27 04:27:05;;;;;;;39.80;17.90;;;;;;;3.66;100.00;101973.00;5095629;27;20039;-76
2023/12/27 04:29:30;;;;;;;48.25;19.30;;;;;;;3.80;100.00;101963.09;5101542;27;20803;-76
2023/12/27 04:31:56;;;;;;;40.78;18.20;;;;;;;3.76;100.00;101958.75;5101555;27;20651;-76
2023/12/27 04:34:22;;;;;;;36.30;16.23;;;;;;;3.81;100.00;101956.03;5070440;27;20473;-76
2023/12/27 04:36:48;;;;;;;34.05;15.48;;;;;;;3.87;100.00;101956.84;5091500;27;20043;-76
2023/12/27 04:39:14;;;;;;;25.13;12.95;;;;;;;3.92;100.00;101950.59;5078963;28;20036;-75
2023/12/27 04:41:42;;;;;;;37.10;16.33;;;;;;;3.84;100.00;101946.31;5075040;28;20044;-75
2023/12/27 04:44:08;;;;;;;41.35;17.65;;;;;;;3.84;100.00;101945.44;5089758;28;20032;-76
2023/12/27 04:46:36;;;;;;;43.33;16.70;;;;;;;3.95;100.00;101947.91;5098392;27;20526;-76
2023/12/27 04:49:04;;;;;;;36.42;15.73;;;;;;;4.03;100.00;101941.59;5099961;27;20044;-76
2023/12/27 04:51:30;;;;;;;38.80;17.08;;;;;;;4.00;100.00;101932.84;5103882;27;20063;-76
2023/12/27 04:53:56;;;;;;;40.25;17.33;;;;;;;4.01;100.00;101924.88;5064916;28;20127;-75
2023/12/27 04:56:22;;;;;;;50.25;17.73;;;;;;;4.10;100.00;101918.56;5067264;27;20035;-75
2023/12/27 04:58:47;;;;;;;50.22;19.75;;;;;;;4.09;100.00;101911.56;5096332;27;20040;-75
2023/12/27 05:01:16;;;;;;;36.50;17.38;;;;;;;4.12;100.00;101911.53;5088813;27;21058;-75
2023/12/27 05:03:44;;;;;;;46.90;20.33;;;;;;;4.21;100.00;101915.72;5096464;27;20118;-75
2023/12/27 05:06:10;;;;;;;45.90;21.15;;;;;;;4.23;100.00;101912.16;5095660;27;20063;-76
2023/12/27 05:08:40;;;;;;;45.53;20.25;;;;;;;4.26;100.00;101911.22;5077958;28;20050;-75
2023/12/27 05:11:19;;;;;;;53.97;21.92;;;;;;;4.31;100.00;101912.00;5083012;27;20092;-76
2023/12/27 05:13:45;;;;;;;68.00;22.70;;;;;;;4.27;100.00;101918.28;5094401;27;20028;-75
2023/12/27 05:16:12;;;;;;;59.30;23.63;;;;;;;4.32;100.00;101919.03;5080848;28;20179;-76
2023/12/27 05:18:39;;;;;;;49.75;22.15;;;;;;;4.50;100.00;101920.41;5077456;27;21090;-76
2023/12/27 05:21:06;;;;;;;56.13;22.73;;;;;;;4.50;100.00;101925.69;5103577;27;20028;-74
2023/12/27 05:23:31;;;;;;;65.60;23.75;;;;;;;4.48;100.00;101930.16;5102836;27;20038;-74
2023/12/27 05:25:57;;;;;;;54.65;23.92;;;;;;;4.45;100.00;101919.66;5095863;27;20051;-75
2023/12/27 05:28:23;;;;;;;61.92;22.70;;;;;;;4.53;100.00;101925.66;5097179;27;20035;-75
2023/12/27 05:30:49;;;;;;;55.95;22.88;;;;;;;4.51;100.00;101916.88;5070734;27;20032;-75
2023/12/27 05:33:14;;;;;;;59.05;26.05;;;;;;;4.57;100.00;101917.63;5080461;27;20056;-75
2023/12/27 05:35:40;;;;;;;64.47;23.90;;;;;;;4.67;100.00;101908.59;5108738;27;20047;-74
2023/12/27 05:38:06;;;;;;;60.40;24.45;;;;;;;4.57;100.00;101911.50;5098597;27;20036;-74
2023/12/27 05:40:31;;;;;;;59.28;23.77;;;;;;;4.66;100.00;101904.19;5093288;28;20040;-73
2023/12/27 05:42:57;;;;;;;53.85;23.08;;;;;;;4.77;100.00;101904.00;5097668;27;20043;-74
2023/12/27 05:45:22;;;;;;;68.75;24.45;;;;;;;4.79;100.00;101896.03;5106736;27;20032;-73
2023/12/27 05:47:48;;;;;;;58.08;24.23;;;;;;;4.78;100.00;101897.81;5098344;27;20055;-75
2023/12/27 05:50:14;;;;;;;64.90;26.42;;;;;;;4.70;100.00;101898.88;5102184;27;20036;-75
2023/12/27 05:52:40;;;;;;;61.67;25.00;;;;;;;4.71;100.00;101898.81;5083409;28;20039;-74
2023/12/27 05:55:06;;;;;;;55.17;22.92;;;;;;;4.68;100.00;101897.13;5089273;27;20040;-74
2023/12/27 05:57:32;;;;;;;68.15;25.67;;;;;;;4.73;100.00;101898.81;5108766;27;20110;-74
2023/12/27 05:59:57;;;;;;;72.10;25.40;;;;;;;4.76;100.00;101898.72;5094980;27;20721;-74
2023/12/27 06:02:23;;;;;;;68.32;26.25;;;;;;;4.89;100.00;101890.50;5085086;27;20036;-74
2023/12/27 06:04:48;;;;;;;70.50;27.38;;;;;;;4.76;100.00;101893.44;5114777;27;20039;-74
2023/12/27 06:07:14;;;;;;;73.57;28.55;;;;;;;4.85;100.00;101887.94;5115704;27;20093;-75
2023/12/27 06:09:40;;;;;;;62.90;28.52;;;;;;;4.77;100.00;101877.56;5105646;28;20368;-75
2023/12/27 06:12:08;;;;;;;64.68;28.23;;;;;;;4.75;100.00;101883.78;5112024;27;20111;-73
2023/12/27 06:14:34;;;;;;;55.45;26.08;;;;;;;4.86;100.00;101887.03;5103848;27;20027;-74
2023/12/27 06:17:00;;;;;;;67.20;25.77;;;;;;;4.73;100.00;101877.69;5114696;27;20055;-74
2023/12/27 06:19:25;;;;;;;65.38;26.02;;;;;;;4.65;100.00;101883.97;5075190;28;20043;-73
2023/12/27 06:21:51;;;;;;;68.03;25.80;;;;;;;4.75;100.00;101886.41;5100772;27;20355;-74
2023/12/27 06:24:16;;;;;;;60.17;24.48;;;;;;;4.71;100.00;101876.81;5081939;28;20048;-75
2023/12/27 06:26:42;;;;;;;66.55;23.90;;;;;;;4.75;100.00;101874.06;5077806;27;20490;-74
2023/12/27 06:29:07;;;;;;;68.38;25.90;;;;;;;4.72;100.00;101870.63;5086925;27;20032;-74
2023/12/27 06:31:34;;;;;;;55.97;25.67;;;;;;;4.80;100.00;101871.34;5079835;28;20827;-74
2023/12/27 06:34:01;;;;;;;69.18;25.80;;;;;;;4.86;100.00;101869.41;5103921;27;20493;-74
2023/12/27 06:36:27;;;;;;;58.97;23.85;;;;;;;4.78;100.00;101860.81;5083750;27;20055;-75
2023/12/27 06:38:52;;;;;;;59.92;22.33;;;;;;;4.92;100.00;101853.44;5102949;27;21076;-73
2023/12/27 06:41:18;;;;;;;55.05;22.13;;;;;;;4.91;100.00;101848.16;5096525;27;20035;-73
2023/12/27 06:43:44;;;;;;;70.47;23.98;;;;;;;4.89;100.00;101845.56;5081116;27;20023;-74
2023/12/27 06:46:10;;;;;;;52.78;22.27;;;;;;;5.00;100.00;101850.59;5091650;27;20513;-74
2023/12/27 06:48:35;;;;;;;58.78;22.30;;;;;;;5.10;100.00;101836.25;5071109;28;20894;-74
2023/12/27 06:51:03;;;;;;;60.25;22.75;;;;;;;5.03;100.00;101832.03;5087131;27;20043;-73
2023/12/27 06:53:29;;;;;;;45.42;20.85;;;;;;;4.96;100.00;101835.72;5072111;27;20039;-74
2023/12/27 06:55:55;;;;;;;64.15;21.45;;;;;;;4.88;100.00;101827.97;5085416;27;20071;-74
2023/12/27 06:58:21;;;;;;;53.22;20.15;;;;;;;4.95;100.00;101828.69;5093299;27;20582;-75
2023/12/27 07:00:46;;;;;;;62.78;21.83;;;;;;;5.02;100.00;101826.75;5090209;27;20032;-74
2023/12/27 07:03:12;;;;;;;54.35;21.08;;;;;;;4.97;100.00;101831.28;5087232;27;20060;-73
2023/12/27 07:05:38;;;;;;;58.90;20.17;;;;;;;4.98;100.00;101830.41;5101035;27;20030;-74
2023/12/27 07:08:04;;;;;;;53.30;18.95;;;;;;;4.97;100.00;101820.72;5079254;27;20071;-74
2023/12/27 07:10:30;;;;;;;57.53;19.63;;;;;;;4.95;100.00;101812.84;5071273;28;20040;-74
2023/12/27 07:12:55;;;;;;;61.88;20.65;;;;;;;4.92;100.00;101815.56;5097144;27;20031;-75
2023/12/27 07:15:21;;;;;;;63.60;22.02;;;;;;;5.06;100.00;101813.44;5091869;27;20475;-76
2023/12/27 07:17:47;;;;;;;53.45;22.33;;;;;;;4.98;100.00;101819.84;5080881;27;20066;-73
2023/12/27 07:20:12;;;;;;;56.38;21.98;;;;;;;4.89;100.00;101816.50;5079738;27;20052;-75
2023/12/27 07:22:38;;;;;;;56.90;22.70;;;;;;;4.88;100.00;101820.06;5091777;27;20040;-75
2023/12/27 07:25:04;;;;;;;73.35;23.63;;;;;;;4.87;100.00;101818.31;5081727;27;21013;-74
2023/12/27 07:27:30;;;;;;;49.15;22.15;;;;;;;4.77;100.00;101824.72;5078030;27;20031;-74
2023/12/27 07:29:55;;;;;;;48.08;22.42;;;;;;;4.82;100.00;101821.94;5092074;27;20031;-74
2023/12/27 07:32:21;;;;;;;62.40;23.73;;;;;;;4.88;100.00;101827.97;5085180;27;20039;-75
2023/12/27 07:34:47;;;;;;;60.42;22.92;;;;;;;4.88;100.00;101822.69;5105819;27;20142;-74
2023/12/27 07:37:12;;;;;;;62.22;23.05;;;;;;;4.93;100.00;101823.44;5097715;27;20620;-75
2023/12/27 07:39:38;;;;;;;69.13;24.25;;;;;;;4.91;100.00;101817.31;5090821;27;20039;-73
2023/12/27 07:42:03;;;;;;;46.33;22.73;;;;;;;4.85;100.00;101812.19;5082638;27;20042;-73
2023/12/27 07:44:29;;;;;;;60.45;23.85;;;;;;;4.86;100.00;101815.69;5091297;27;20108;-75
2023/12/27 07:46:55;;;;;;;59.95;24.13;;;;;;;4.92;100.00;101821.72;5087141;27;20043;-74
2023/12/27 07:49:21;;;;;;;58.47;23.45;;;;;;;4.96;100.00;101817.22;5089592;27;20546;-74
2023/12/27 07:51:46;;;;;;;58.58;22.05;;;;;;;5.10;100.00;101819.53;5088396;27;20202;-74
2023/12/27 07:54:12;;;;;;;59.33;22.83;;;;;;;5.07;100.00;101817.84;5087896;27;20036;-76
2023/12/27 07:56:37;;;;;;;56.53;22.08;;;;;;;5.10;100.00;101815.09;5088007;27;20051;-73
2023/12/27 07:59:04;;;;;;;56.28;21.65;;;;;;;5.17;100.00;101814.06;5066566;28;21236;-75
2023/12/27 08:01:31;;;;;;;57.20;20.98;;;;;;;5.27;100.00;101819.09;5087196;27;20033;-75
2023/12/27 08:03:58;;;;;;;57.28;21.25;;;;;;;5.19;100.00;101814.00;5094890;27;20105;-73
2023/12/27 08:06:23;;;;;;;63.28;21.83;;;;;;;5.17;100.00;101819.34;5098758;27;20047;-75
2023/12/27 08:08:49;;;;;;;56.40;22.40;;;;;;;5.31;100.00;101807.53;5093754;27;20031;-76
2023/12/27 08:11:14;;;;;;;49.45;20.75;;;;;;;5.37;100.00;101807.34;5090193;27;20085;-74
2023/12/27 08:13:40;;;;;;;58.80;21.65;;;;;;;5.35;100.00;101812.69;5085005;27;20059;-75
2023/12/27 08:16:07;;;;;;;53.75;21.40;;;;;;;5.39;100.00;101808.19;5093141;27;20035;-76
2023/12/27 08:18:33;;;;;;;60.03;21.00;;;;;;;5.38;100.00;101802.06;5095039;27;20576;-76
2023/12/27 08:20:58;;;;;;;59.53;22.13;;;;;;;5.42;100.00;101803.72;5097717;27;20086;-76
2023/12/27 08:23:26;;;;;;;59.40;21.40;;;;;;;5.43;100.00;101805.44;5099475;27;20113;-77
2023/12/27 08:25:52;;;;;;;66.05;21.80;;;;;;;5.50;100.00;101806.13;5095724;27;20032;-76
2023/12/27 08:28:17;;;;;;;57.58;21.13;;;;;;;5.45;100.00;101803.59;5099829;27;20036;-76
2023/12/27 08:30:44;;;;;;;57.13;20.83;;;;;;;5.53;100.00;101805.19;5092367;27;20815;-75
2023/12/27 08:33:09;;;;;;;60.92;20.65;;;;;;;5.59;100.00;101797.94;5095689;27;20039;-75
2023/12/27 08:35:36;;;;;;;69.75;23.58;;;;;;;5.40;100.00;101796.72;5098700;27;20584;-75
2023/12/27 08:38:02;;;;;;;74.43;23.23;;;;;;;5.55;100.00;101798.06;5099884;27;20120;-76
2023/12/27 08:40:28;;;;;;;56.42;22.08;;;;;;;5.61;100.00;101800.56;5097510;27;20031;-75
2023/12/27 08:42:54;;;;;;;66.38;22.73;;;;;;;5.49;100.00;101793.81;5084200;27;20036;-75
2023/12/27 08:45:20;;;;;;;67.57;23.80;;;;;;;5.58;100.00;101790.94;5071208;28;21071;-76
2023/12/27 08:47:46;;;;;;;54.53;23.35;;;;;;;5.61;100.00;101793.47;5095578;27;20032;-75
2023/12/27 08:50:12;;;;;;;59.15;25.20;;;;;;;5.64;100.00;101792.53;5077358;28;20044;-76
2023/12/27 08:52:38;;;;;;;56.25;23.65;;;;;;;5.62;100.00;101792.59;5093988;27;20024;-74
2023/12/27 08:55:10;;;;;;;68.18;26.40;;;;;;;5.77;100.00;101793.03;5082910;27;20032;-75
2023/12/27 08:57:36;;;;;;;59.63;23.75;;;;;;;5.84;100.00;101792.84;5068297;27;20059;-76
2023/12/27 09:00:03;;;;;;;58.72;26.23;;;;;;;5.74;100.00;101786.09;5067867;27;20915;-75
2023/12/27 09:02:28;;;;;;;67.45;25.38;;;;;;;6.01;100.00;101780.94;5092766;27;20036;-75
2023/12/27 09:04:54;;;;;;;63.33;27.45;;;;;;;5.76;100.00;101765.72;5091291;27;20043;-76
2023/12/27 09:07:19;;;;;;;65.80;27.23;;;;;;;5.83;100.00;101769.94;5076479;27;20040;-75
2023/12/27 09:09:45;;;;;;;67.55;27.77;;;;;;;6.07;100.00;101773.66;5088753;27;20044;-75
2023/12/27 09:12:10;;;;;;;57.88;26.63;;;;;;;5.87;100.00;101760.13;5088368;27;20044;-75
2023/12/27 09:14:39;;;;;;;64.63;28.20;;;;;;;6.05;100.00;101756.97;5078051;27;20047;-76
2023/12/27 09:17:05;;;;;;;61.05;25.85;;;;;;;6.16;100.00;101754.84;5077805;27;20143;-74
2023/12/27 09:19:31;;;;;;;73.43;28.63;;;;;;;6.32;100.00;101755.25;5105722;27;20024;-74
2023/12/27 09:21:56;;;;;;;56.30;26.23;;;;;;;6.31;100.00;101742.94;5101569;27;21084;-76
2023/12/27 09:24:22;;;;;;;45.17;24.00;;;;;;;6.28;100.00;101731.59;5083892;27;20039;-75
2023/12/27 09:26:48;;;;;;;54.35;25.25;;;;;;;6.18;100.00;101731.88;5099498;27;20032;-74
2023/12/27 09:29:14;;;;;;;47.67;25.42;;;;;;;6.25;100.00;101729.88;5094017;27;20029;-76
2023/12/27 09:31:41;;;;;;;60.67;25.13;;;;;;;6.23;100.00;101721.13;5104022;27;20032;-76
2023/12/27 09:34:06;;;;;;;47.90;24.55;;;;;;;6.36;100.00;101721.59;5104059;27;20132;-75
2023/12/27 09:36:32;;;;;;;47.25;24.23;;;;;;;6.33;100.00;101719.94;5108948;27;20050;-75
2023/12/27 09:38:59;;;;;;;48.67;24.23;;;;;;;6.47;100.00;101722.13;5107233;27;20028;-75
2023/12/27 09:41:24;;;;;;;51.22;25.27;;;;;;;6.55;100.00;101706.84;5113079;27;20170;-75
2023/12/27 09:43:52;;;;;;;61.13;27.90;;;;;;;6.57;100.00;101701.50;5106955;27;20063;-75
2023/12/27 09:46:20;;;;;;;45.42;24.55;;;;;;;6.75;100.00;101712.34;5073500;28;20036;-76
2023/12/27 09:48:46;;;;;;;55.03;25.08;;;;;;;6.66;100.00;101704.69;5111640;27;20042;-75
2023/12/27 09:51:11;;;;;;;54.60;25.55;;;;;;;6.69;100.00;101715.22;5093111;28;20036;-76
2023/12/27 09:53:40;;;;;;;64.07;26.50;;;;;;;6.97;100.00;101708.97;5097196;27;20036;-76
2023/12/27 09:56:06;;;;;;;49.40;25.13;;;;;;;6.92;100.00;101693.22;5115220;27;20040;-75
2023/12/27 09:58:32;;;;;;;51.55;25.60;;;;;;;7.04;100.00;101691.94;5118610;27;20036;-74
2023/12/27 10:01:02;;;;;;;51.03;25.88;;;;;;;7.20;100.00;101689.59;5122021;27;20031;-75
2023/12/27 10:03:36;;;;;;;55.88;26.10;;;;;;;7.27;100.00;101672.53;5093357;28;20043;-75
2023/12/27 10:06:11;;;;;;;58.83;27.15;;;;;;;7.31;100.00;101668.84;5119941;27;20036;-74
2023/12/27 10:08:39;;;;;;;57.63;27.08;;;;;;;7.27;100.00;101656.63;5121833;27;20032;-76
2023/12/27 10:11:07;;;;;;;52.42;26.40;;;;;;;7.39;100.00;101653.53;5098966;28;20039;-74
2023/12/27 10:13:36;;;;;;;57.28;27.83;;;;;;;7.40;100.00;101644.66;5110515;27;20049;-74
2023/12/27 10:16:04;;;;;;;58.55;27.85;;;;;;;7.43;100.00;101643.66;5096177;27;20036;-75
2023/12/27 10:18:30;;;;;;;45.85;25.98;;;;;;;7.49;100.00;101640.78;5119910;27;20048;-75
2023/12/27 10:20:56;;;;;;;57.45;27.40;;;;;;;7.53;100.00;101631.78;5099242;28;20028;-75
2023/12/27 10:23:22;;;;;;;43.92;25.38;;;;;;;7.64;100.00;101629.59;5119262;27;20032;-75
2023/12/27 10:25:48;;;;;;;52.50;24.58;;;;;;;7.70;100.00;101636.44;5109863;27;20028;-75
2023/12/27 10:28:13;;;;;;;49.00;25.23;;;;;;;7.62;100.00;101618.16;5107180;27;20053;-75
2023/12/27 10:30:39;;;;;;;42.78;24.08;;;;;;;7.49;100.00;101599.19;5086178;28;20036;-75
2023/12/27 10:33:05;;;;;;;41.38;24.35;;;;;;;7.53;100.00;101594.63;5108703;27;20039;-76
2023/12/27 10:35:31;;;;;;;38.75;21.90;;;;;;;7.60;100.00;101595.25;5108771;27;20044;-77
2023/12/27 10:38:02;;;;;;;41.83;23.27;;;;;;;7.70;100.00;101586.00;5088157;27;20051;-75
2023/12/27 10:40:27;;;;;;;48.22;24.63;;;;;;;7.77;100.00;101583.03;5108355;27;21101;-76
2023/12/27 10:42:53;;;;;;;35.65;21.35;;;;;;;7.80;100.00;101563.47;5099643;27;20040;-76
2023/12/27 10:45:21;;;;;;;37.13;22.35;;;;;;;7.70;100.00;101573.59;5099379;27;20036;-75
2023/12/27 10:47:49;;;;;;;47.70;22.88;;;;;;;7.75;100.00;101561.00;5080169;27;20637;-75
2023/12/27 10:50:20;;;;;;;34.20;20.13;;;;;;;7.77;100.00;101553.84;5084099;27;20969;-75
2023/12/27 10:52:51;;;;;;;39.75;20.42;;;;;;;7.73;100.00;101556.66;5101550;27;20055;-73
2023/12/27 10:55:19;;;;;;;41.50;21.10;;;;;;;7.74;100.00;101561.94;5090240;27;20028;-75
2023/12/27 10:57:53;;;;;;;37.08;20.80;;;;;;;7.82;100.00;101566.94;5089237;27;20046;-75
2023/12/27 11:00:20;;;;;;;46.95;23.38;;;;;;;7.96;100.00;101553.09;5101626;27;20040;-75
2023/12/27 11:02:47;;;;;;;39.75;20.30;;;;;;;7.86;100.00;101547.28;5097060;27;20044;-75
2023/12/27 11:05:15;;;;;;;37.78;17.85;;;;;;;7.90;100.00;101535.63;5087478;27;20043;-75